Tiempo atmosférico en la estación meteorológica de Alfaro, La Rioja (285 m.)



Fecha
DESCASC
Temp. máxima en grados centígrados (hora)
DESCASC
Temp. mínima en grados centígrados (hora)
DESCASC
Temp. media en grados centígrados
DESCASC
Racha de viento máxima en m/sg (hora)
DESCASC
Velocidad máxima media en intervalos de 10 minutos(hora)
DESCASC
Precipitaciones diarias en mm
DESCASC
Precipitaciones de 00:00 a 06:00 en mm
DESCASC
Precipitaciones de 06:00 a 12:00 en mm
DESCASC
Precipitaciones de 12:00 a 18:00 en mm
DESCASC
Precipitaciones de 18:00 a 24:00 en mm
DESCASC
07-01-2021 2.8 (16:10) -7.8 (-00:0) -2.5 3.89 (23:50) 2.5 (21:50) 0 0 0 0 0
08-01-2021 4.5 (12:40) -5.7 (-00:0) -0.6 8.61 (12:40) 5.56 (12:40) 0 0 0 0 0
09-01-2021 0.5 (00:00) -0.7 (-00:0) -0.1 7.78 (11:40) 4.44 (12:00) -- 0 0 -- --
04-01-2021 5.8 (16:00) -4.4 (-00:0) 0.7 6.94 (17:20) 4.17 (17:20) 0 0 0 0 0
06-01-2021 8.2 (14:40) -5.7 (-00:0) 1.3 6.11 (13:20) 3.89 (14:20) 0 0 0 0 0
10-01-2021 4.1 (14:30) -0.8 (23:30) 1.6 12.78 (08:50) 7.5 (09:00) -- -- -- -- 0
31-12-2020 8.3 (15:10) -4.9 (-00:0) 1.7 4.72 (15:10) 3.33 (20:30) 5 0 0 0 5
19-01-2021 7.5 (16:30) -4 (-00:0) 1.8 11.67 (23:10) 7.22 (23:10) 0 0 0 0 0
05-01-2021 7.2 (15:00) -2.6 (-00:0) 2.3 7.78 (16:50) 4.72 (16:50) 0 0 0 0 0
11-01-2021 6.2 (14:50) -1.1 (-00:0) 2.5 16.39 (11:20) 10.28 (11:20) 0.2 0 0.2 0 0
27-12-2020 9.9 (23:59) -3 (-00:0) 3.4 18.89 (22:40) 12.78 (23:00) 0 0 0 0 0
29-12-2020 10.8 (14:30) -3.8 (-00:0) 3.5 13.89 (15:00) 8.89 (15:00) 0 0 0 0 0
30-12-2020 8.6 (13:10) -1.6 (-00:0) 3.5 8.89 (13:10) 6.11 (13:10) 0 0 0 0 0
02-01-2021 6.7 (14:40) 0.4 (00:00) 3.5 15.83 (05:10) 10 (05:10) 0 0 0 0 0
03-01-2021 8.9 (15:20) -0.9 (-00:0) 4 10 (13:50) 6.39 (21:00) 1.2 0 0 0 1.2
12-01-2021 8.9 (15:00) -0.2 (00:00) 4.3 11.94 (14:10) 8.06 (13:40) 0 0 0 0 0
01-01-2021 9 (14:30) 0.2 (00:00) 4.6 11.39 (18:10) 7.5 (18:10) 0 0 0 0 0
25-12-2020 7.4 (14:10) 2.1 (00:00) 4.8 12.78 (16:00) 8.06 (16:00) 0 0 0 0 0
26-12-2020 9 (13:10) 2 (00:00) 5.5 14.17 (14:30) 8.89 (13:50) 0 0 0 0 0
14-01-2021 11.5 (14:30) 0.3 (05:00) 5.9 13.06 (15:40) 8.61 (12:50) 0 0 0 0 0
17-01-2021 15.4 (14:50) -3.2 (-00:0) 6.1 11.94 (14:40) 7.78 (14:30) 0 0 0 0 0
18-01-2021 14.1 (15:10) -0.5 (-00:0) 6.8 6.39 (15:00) 4.17 (16:10) 0 0 0 0 0
21-01-2021 14.9 (16:00) -1.1 (-00:0) 6.9 15 (12:30) 11.39 (12:40) 0 0 0 0 0
13-01-2021 11.8 (14:30) 2.6 (00:00) 7.2 13.33 (14:30) 8.33 (14:30) 0 0 0 0 0
28-12-2020 13.2 (14:40) 1.4 (00:00) 7.3 13.06 (15:10) 8.33 (15:20) 3.2 3.2 0 0 0
23-12-2020 8.5 (16:30) 6 (00:00) 7.3 4.17 (00:10) 2.5 (00:10) 0 0 0 0 0
20-01-2021 10.8 (17:00) 4.3 (00:00) 7.6 14.17 (06:40) 9.17 (06:50) 0 0 0 0 0
24-12-2020 11.8 (13:10) 4.6 (00:00) 8.2 9.72 (15:00) 6.39 (15:00) 0.2 0.2 0 0 0
16-01-2021 15 (16:10) 2.1 (00:00) 8.5 13.06 (00:10) 8.89 (00:10) 0 0 0 0 0
15-01-2021 12.2 (14:30) 5.4 (00:00) 8.8 14.72 (14:00) 9.72 (14:00) 0 0 0 0 0

Gráficas

Temp. máximas Temp. mínimas Temp. medias Precipitaciones Rachas de viento máximas Velocidades máximas media en intervalos de 10 minutos

Datos horarios

Fecha y hora oficial Temperatura (ºC) Velocidad del viento (km/h) Dirección del viento Racha (km/h) Dirección de racha Precipitación (mm) Presión (hPa) Tendencia (hPa) Humedad (%)
2021-01-21 23:00:00 11.4 18 Sudoeste 32 Sudoeste 0 -- -- 77
2021-01-21 22:00:00 11.1 19 Sur 26 Sudoeste 0 -- -- 78
2021-01-21 21:00:00 9.8 3 Este 19 Sur 0 -- -- 79
2021-01-21 20:00:00 10.7 11 Sur 25 Sur 0 -- -- 78
2021-01-21 19:00:00 11 22 Sudoeste 42 Sudoeste 0 -- -- 76
2021-01-21 18:00:00 13 27 Sur 42 Sur 0 -- -- 68
2021-01-21 17:00:00 14.6 26 Sur 36 Sudoeste 0 -- -- 63
2021-01-21 16:00:00 14.9 21 Sur 39 Sur 0 -- -- 60
2021-01-21 15:00:00 14.5 25 Sur 41 Sur 0 -- -- 61
2021-01-21 14:00:00 14.3 29 Sur 47 Sudoeste 0 -- -- 59
2021-01-21 13:00:00 14.1 35 Sur 54 Sudoeste 0 -- -- 61
2021-01-21 12:00:00 13.5 29 Sudoeste 40 Sudoeste 0 -- -- 67
2021-01-21 11:00:00 6.3 3 Sudoeste 9 Este 0 -- -- 100
2021-01-21 10:00:00 2.9 0 Calma 7 Sur 0 -- -- 100
2021-01-21 09:00:00 -1 4 Sudoeste 8 Sudoeste 0 -- -- 99
2021-01-21 08:00:00 -0.8 2 Sur 8 Sudoeste 0 -- -- 98
2021-01-21 07:00:00 -0.1 3 Sur 6 Oeste 0 -- -- 97
2021-01-21 06:00:00 0.5 0 Calma 8 Sur 0 -- -- 97
2021-01-21 05:00:00 0.3 6 Oeste 10 Oeste 0 -- -- 94
2021-01-21 04:00:00 2.3 2 Noroeste 4 Noroeste 0 -- -- 89
2021-01-21 03:00:00 5 2 Sudeste 14 Norte 0 -- -- 83
2021-01-21 02:00:00 8 9 Sur 28 Sur 0 -- -- 80
2021-01-21 01:00:00 8.1 21 Sur 29 Sur 0 -- -- 82
2021-01-21 00:00:00 7.8 19 Sudeste 27 Sudeste 0 -- -- 83
2021-01-20 23:00:00 7.6 21 Sudeste 31 Sudeste 0 -- -- 84
2021-01-20 22:00:00 7.6 21 Sudeste 38 Sudeste 0 -- -- 83
2021-01-20 21:00:00 7.4 14 Sudeste 26 Sudeste 0 -- -- 83
2021-01-20 20:00:00 7.3 17 Sudeste 33 Sudeste 0 -- -- 81
2021-01-20 19:00:00 7.2 24 Sudeste 36 Sudeste 0 -- -- 81
2021-01-20 18:00:00 7.9 24 Sudeste 36 Sudeste 0 -- -- 78
2021-01-20 17:00:00 10.8 23 Sur 40 Sur 0 -- -- 66
2021-01-20 16:00:00 10.1 25 Sudeste 44 Sudeste 0 -- -- 69
2021-01-20 15:00:00 9.6 21 Sudeste 42 Sudeste 0 -- -- 76
2021-01-20 14:00:00 9.2 28 Sudeste 43 Sudeste 0 -- -- 74
2021-01-20 13:00:00 7.5 26 Sudeste 39 Sudeste 0 -- -- 83
2021-01-20 12:00:00 6.7 29 Sudeste 41 Sudeste 0 -- -- 87
2021-01-20 11:00:00 5.9 25 Sudeste 41 Sudeste 0 -- -- 89
2021-01-20 10:00:00 5.5 21 Sudeste 33 Sudeste 0 -- -- 92
2021-01-20 09:00:00 4.5 21 Sudeste 37 Este 0 -- -- 97
2021-01-20 08:00:00 4.4 27 Este 42 Este 0 -- -- 98
2021-01-20 07:00:00 4.7 25 Sudeste 51 Sudeste 0 -- -- 98
2021-01-20 06:00:00 4.6 25 Sudeste 40 Sudeste 0 -- -- 97
2021-01-20 05:00:00 5.1 28 Sudeste 44 Sudeste 0 -- -- 96
2021-01-20 04:00:00 4.8 26 Sudeste 45 Sudeste 0 -- -- 94
2021-01-20 03:00:00 5.2 18 Sudeste 41 Sudeste 0 -- -- 90
2021-01-20 02:00:00 4.7 18 Sudeste 37 Sudeste 0 -- -- 90
2021-01-20 01:00:00 5.1 23 Sudeste 39 Sudeste 0 -- -- 88
2021-01-20 00:00:00 5 20 Sudeste 42 Sudeste 0 -- -- 91
2021-01-19 23:00:00 4.1 25 Sudeste 35 Sudeste 0 -- -- 100
2021-01-19 22:00:00 -1.1 3 Noroeste 5 Oeste 0 -- -- 98
2021-01-19 21:00:00 -1.1 4 Noroeste 11 Sudoeste 0 -- -- 97
2021-01-19 20:00:00 -0.9 4 Sur 8 Sudoeste 0 -- -- 92
2021-01-19 19:00:00 1.6 0 Calma 8 Noroeste 0 -- -- 87
2021-01-19 18:00:00 4.6 4 Oeste 10 Oeste 0 -- -- 78
2021-01-19 17:00:00 7.5 5 Oeste 9 Oeste 0 -- -- 76
2021-01-19 16:00:00 7.2 6 Oeste 14 Oeste 0 -- -- 79
2021-01-19 15:00:00 5.7 4 Oeste 14 Sudeste 0 -- -- 93
2021-01-19 14:00:00 4.4 9 Sudeste 19 Sudeste 0 -- -- 100
2021-01-19 13:00:00 2.5 5 Sudeste 8 Sudeste 0 -- -- 100
2021-01-19 12:00:00 1.6 3 Sudeste 5 Sudeste 0 -- -- 100
2021-01-19 11:00:00 0.7 0 Calma 4 Noroeste 0 -- -- 100
2021-01-19 10:00:00 0.2 0 Calma 4 Sudoeste 0 -- -- 100
2021-01-19 09:00:00 -0.3 0 Calma 7 Norte 0 -- -- 100
2021-01-19 08:00:00 -0.7 3 Sudoeste 5 Sudoeste 0 -- -- 100
2021-01-19 07:00:00 -2 0 Calma 4 Sudoeste 0 -- -- 100
2021-01-19 06:00:00 -3.6 4 Sudoeste 5 Sudoeste 0 -- -- 99
2021-01-19 05:00:00 -3.7 0 Calma 4 Oeste 0 -- -- 98
2021-01-19 04:00:00 -3.5 2 Oeste 4 Sudoeste 0 -- -- 98
2021-01-19 03:00:00 -2.8 0 Calma 3 Sudoeste 0 -- -- 97
2021-01-19 02:00:00 -2 0 Calma 3 Sudoeste 0 -- -- 96
2021-01-19 01:00:00 -1.1 0 Calma 6 Este 0 -- -- 97
2021-01-19 00:00:00 0 3 Este 5 Nordeste 0 -- -- 97
2021-01-18 23:00:00 0 3 Sudoeste 7 Sur 0 -- -- 95
2021-01-18 22:00:00 0.3 5 Sudoeste 8 Sudoeste 0 -- -- 93
2021-01-18 21:00:00 1.6 6 Sudoeste 9 Sur 0 -- -- 89
2021-01-18 20:00:00 3.4 4 Sur 8 Oeste 0 -- -- 85
2021-01-18 19:00:00 6.4 5 Oeste 11 Oeste 0 -- -- 79
2021-01-18 18:00:00 11.9 6 Oeste 14 Noroeste 0 -- -- 60
2021-01-18 17:00:00 13.5 10 Noroeste 23 Noroeste 0 -- -- 55
2021-01-18 16:00:00 13.6 14 Noroeste 21 Norte 0 -- -- 54
2021-01-18 15:00:00 14 14 Norte 23 Norte 0 -- -- 57
2021-01-18 14:00:00 13.8 10 Noroeste 17 Noroeste 0 -- -- 61
2021-01-18 13:00:00 12.4 6 Noroeste 16 Noroeste 0 -- -- 68
2021-01-18 12:00:00 10.7 10 Noroeste 17 Noroeste 0 -- -- 76
2021-01-18 11:00:00 8.9 12 Noroeste 19 Noroeste 0 -- -- 85
2021-01-18 10:00:00 6.2 9 Noroeste 17 Noroeste 0 -- -- 100
2021-01-18 09:00:00 2.1 8 Noroeste 12 Noroeste 0 -- -- 99
2021-01-18 08:00:00 3.3 6 Norte 13 Noroeste 0 -- -- 99
2021-01-18 07:00:00 2.2 8 Noroeste 13 Noroeste 0 -- -- 100
2021-01-18 06:00:00 2.6 7 Noroeste 12 Noroeste 0 -- -- 98
2021-01-18 05:00:00 2.3 6 Sudoeste 14 Noroeste 0 -- -- 95
2021-01-18 04:00:00 4.6 11 Noroeste 16 Noroeste 0 -- -- 97
2021-01-18 03:00:00 4.8 11 Noroeste 17 Noroeste 0 -- -- 98
2021-01-18 02:00:00 3.6 5 Noroeste 8 Noroeste 0 -- -- 93
2021-01-18 01:00:00 5.4 5 Sudoeste 17 Norte 0 -- -- 85
2021-01-18 00:00:00 7.6 12 Norte 21 Norte 0 -- -- 86
2021-01-17 23:00:00 8.8 13 Norte 19 Norte 0 -- -- 83
2021-01-17 22:00:00 9.1 11 Norte 17 Noroeste 0 -- -- 82
2021-01-17 21:00:00 9.3 5 Noroeste 14 Norte 0 -- -- 79
2021-01-17 20:00:00 9.6 10 Noroeste 21 Noroeste 0 -- -- 78
2021-01-17 19:00:00 9.6 10 Noroeste 27 Noroeste 0 -- -- 75
2021-01-17 18:00:00 11.9 19 Noroeste 33 Noroeste 0 -- -- 68
2021-01-17 17:00:00 12.7 17 Noroeste 30 Noroeste 0 -- -- 64
2021-01-17 16:00:00 13.4 11 Norte 33 Noroeste 0 -- -- 57
2021-01-17 15:00:00 14.5 19 Noroeste 43 Noroeste 0 -- -- 51
2021-01-17 14:00:00 14.7 22 Noroeste 38 Noroeste 0 -- -- 48
2021-01-17 13:00:00 13.2 20 Noroeste 34 Noroeste 0 -- -- 46
2021-01-17 12:00:00 11.5 19 Noroeste 30 Noroeste 0 -- -- 48
2021-01-17 11:00:00 7.7 12 Noroeste 24 Noroeste 0 -- -- 62
2021-01-17 10:00:00 4.8 13 Noroeste 22 Noroeste 0 -- -- 79
2021-01-17 09:00:00 -2.5 5 Noroeste 8 Sudoeste 0 -- -- 95
2021-01-17 08:00:00 -3.1 4 Sudoeste 11 Sudoeste 0 -- -- 93
2021-01-17 07:00:00 -2.4 3 Noroeste 5 Nordeste 0 -- -- 89
2021-01-17 06:00:00 -1.2 0 Calma 11 Oeste 0 -- -- 87
2021-01-17 05:00:00 -0.3 8 Oeste 12 Oeste 0 -- -- 84
2021-01-17 04:00:00 0.6 5 Oeste 22 Noroeste 0 -- -- 78
2021-01-17 03:00:00 0.4 6 Oeste 12 Noroeste 0 -- -- 79
2021-01-17 02:00:00 2 4 Norte 24 Noroeste 0 -- -- 74
2021-01-17 01:00:00 3.6 21 Norte 33 Norte 0 -- -- 70
2021-01-17 00:00:00 2.1 8 Oeste 16 Oeste 0 -- -- 75
2021-01-16 23:00:00 2.6 8 Oeste 16 Noroeste 0 -- -- 76
2021-01-16 22:00:00 4.6 13 Noroeste 23 Noroeste 0 -- -- 71
2021-01-16 21:00:00 4.3 14 Noroeste 18 Noroeste 0 -- -- 73
2021-01-16 20:00:00 5.3 10 Noroeste 14 Noroeste 0 -- -- 67
2021-01-16 19:00:00 6.9 8 Oeste 15 Norte 0 -- -- 62
2021-01-16 18:00:00 10.3 9 Norte 24 Noroeste 0 -- -- 50
2021-01-16 17:00:00 13.8 13 Noroeste 28 Noroeste 0 -- -- 33
2021-01-16 16:00:00 14.9 17 Noroeste 31 Noroeste 0 -- -- 32
2021-01-16 15:00:00 14.3 18 Noroeste 31 Noroeste 0 -- -- 39
2021-01-16 14:00:00 12.4 17 Noroeste 30 Noroeste 0 -- -- 48
2021-01-16 13:00:00 10.7 19 Noroeste 33 Noroeste 0 -- -- 55
2021-01-16 12:00:00 9.1 21 Noroeste 35 Norte 0 -- -- 63
2021-01-16 11:00:00 7.4 18 Norte 29 Norte 0 -- -- 70
2021-01-16 10:00:00 5 18 Norte 32 Noroeste 0 -- -- 80
2021-01-16 09:00:00 3.2 15 Noroeste 21 Noroeste 0 -- -- 88
2021-01-16 08:00:00 2.7 0 Calma 23 Noroeste 0 -- -- 85
2021-01-16 07:00:00 4 16 Noroeste 26 Noroeste 0 -- -- 84
2021-01-16 06:00:00 4.1 12 Noroeste 24 Noroeste 0 -- -- 82
2021-01-16 05:00:00 5.4 14 Noroeste 23 Norte 0 -- -- 77
2021-01-16 04:00:00 6 13 Noroeste 31 Noroeste 0 -- -- 74
2021-01-16 03:00:00 6.9 18 Noroeste 36 Noroeste 0 -- -- 69
2021-01-16 02:00:00 7.2 23 Noroeste 43 Noroeste 0 -- -- 68
2021-01-16 01:00:00 7.1 23 Noroeste 47 Noroeste 0 -- -- 71
2021-01-16 00:00:00 7.2 31 Noroeste 45 Noroeste 0 -- -- 70
2021-01-15 23:00:00 7.2 26 Noroeste 42 Noroeste 0 -- -- 70
2021-01-15 22:00:00 7.1 21 Noroeste 41 Noroeste 0 -- -- 70
2021-01-15 21:00:00 7.5 24 Noroeste 39 Noroeste 0 -- -- 69
2021-01-15 20:00:00 7.4 19 Noroeste 36 Noroeste 0 -- -- 70
2021-01-15 19:00:00 7.7 19 Noroeste 36 Noroeste 0 -- -- 70
2021-01-15 18:00:00 8 18 Noroeste 38 Norte 0 -- -- 70
2021-01-15 17:00:00 8.9 23 Noroeste 46 Noroeste 0 -- -- 68
2021-01-15 16:00:00 11.4 27 Noroeste 49 Noroeste 0 -- -- 59
2021-01-15 15:00:00 12 27 Noroeste 51 Noroeste 0 -- -- 60
2021-01-15 14:00:00 11.4 35 Noroeste 53 Oeste 0 -- -- 61
2021-01-15 13:00:00 10.6 34 Noroeste 50 Noroeste 0 -- -- 64
2021-01-15 12:00:00 9.7 29 Noroeste 51 Noroeste 0 -- -- 67
2021-01-15 11:00:00 8.5 24 Noroeste 44 Noroeste 0 -- -- 72
2021-01-15 10:00:00 7.9 26 Noroeste 39 Noroeste 0 -- -- 75
2021-01-15 09:00:00 7.8 24 Noroeste 37 Noroeste 0 -- -- 71
2021-01-15 08:00:00 7.3 18 Noroeste 35 Noroeste 0 -- -- 74
2021-01-15 07:00:00 7.7 23 Noroeste 37 Noroeste 0 -- -- 74
2021-01-15 06:00:00 7.6 22 Noroeste 37 Noroeste 0 -- -- 72
2021-01-15 05:00:00 6.5 14 Noroeste 34 Noroeste 0 -- -- 76
2021-01-15 04:00:00 6.2 18 Noroeste 30 Noroeste 0 -- -- 80
2021-01-15 03:00:00 6.3 11 Noroeste 27 Norte 0 -- -- 84
2021-01-15 02:00:00 6.5 19 Noroeste 32 Noroeste 0 -- -- 89
2021-01-15 01:00:00 6.1 15 Noroeste 24 Norte 0 -- -- 90
2021-01-15 00:00:00 5.4 10 Noroeste 19 Noroeste 0 -- -- 93
2021-01-14 23:00:00 5.8 10 Norte 20 Noroeste 0 -- -- 90
2021-01-14 22:00:00 5.7 11 Noroeste 22 Noroeste 0 -- -- 88
2021-01-14 21:00:00 5.8 12 Norte 23 Noroeste 0 -- -- 86
2021-01-14 20:00:00 6.5 12 Noroeste 20 Norte 0 -- -- 82
2021-01-14 19:00:00 7.1 11 Norte 24 Noroeste 0 -- -- 77
2021-01-14 18:00:00 8.6 19 Noroeste 33 Noroeste 0 -- -- 68
2021-01-14 17:00:00 9.9 24 Noroeste 46 Noroeste 0 -- -- 60
2021-01-14 16:00:00 11.3 27 Noroeste 47 Noroeste 0 -- -- 55
2021-01-14 15:00:00 11.5 23 Noroeste 42 Noroeste 0 -- -- 54
2021-01-14 14:00:00 10.9 27 Noroeste 44 Noroeste 0 -- -- 59
2021-01-14 13:00:00 9.6 27 Noroeste 45 Noroeste 0 -- -- 62
2021-01-14 12:00:00 8.7 24 Noroeste 40 Noroeste 0 -- -- 66
2021-01-14 11:00:00 6.6 21 Noroeste 33 Noroeste 0 -- -- 74
2021-01-14 10:00:00 3.4 17 Noroeste 27 Norte 0 -- -- 86
2021-01-14 09:00:00 1.4 14 Noroeste 22 Norte 0 -- -- 91
2021-01-14 08:00:00 1.4 14 Noroeste 21 Noroeste 0 -- -- 93
2021-01-14 07:00:00 0.9 12 Noroeste 25 Noroeste 0 -- -- 92
2021-01-14 06:00:00 1.1 16 Noroeste 26 Noroeste 0 -- -- 93
2021-01-14 05:00:00 0.3 13 Noroeste 20 Noroeste 0 -- -- 94
2021-01-14 04:00:00 0.7 14 Noroeste 21 Noroeste 0 -- -- 94
2021-01-14 03:00:00 0.9 13 Noroeste 18 Noroeste 0 -- -- 94
2021-01-14 02:00:00 1.7 14 Noroeste 25 Noroeste 0 -- -- 92
2021-01-14 01:00:00 2.2 15 Noroeste 23 Noroeste 0 -- -- 91
2021-01-14 00:00:00 2.6 15 Noroeste 24 Noroeste 0 -- -- 91
2021-01-13 23:00:00 2.9 12 Noroeste 18 Noroeste 0 -- -- 90
2021-01-13 22:00:00 3.1 9 Noroeste 14 Noroeste 0 -- -- 87
2021-01-13 21:00:00 4.3 9 Noroeste 25 Noroeste 0 -- -- 83
2021-01-13 20:00:00 6 13 Noroeste 30 Noroeste 0 -- -- 78
2021-01-13 19:00:00 7.6 19 Noroeste 36 Noroeste 0 -- -- 72
2021-01-13 18:00:00 8.8 20 Noroeste 39 Noroeste 0 -- -- 69
2021-01-13 17:00:00 10.1 23 Noroeste 40 Noroeste 0 -- -- 64
2021-01-13 16:00:00 10.9 24 Noroeste 42 Noroeste 0 -- -- 62
2021-01-13 15:00:00 11 27 Noroeste 48 Noroeste 0 -- -- 62
2021-01-13 14:00:00 10.7 24 Noroeste 40 Noroeste 0 -- -- 64
2021-01-13 13:00:00 10.4 25 Noroeste 36 Noroeste 0 -- -- 64
2021-01-13 12:00:00 10.7 20 Noroeste 34 Noroeste 0 -- -- 65
2021-01-13 11:00:00 7.1 15 Noroeste 30 Noroeste 0 -- -- 77
2021-01-13 10:00:00 4.7 17 Noroeste 25 Noroeste 0 -- -- 81
2021-01-13 09:00:00 3.4 12 Noroeste 26 Noroeste 0 -- -- 85
2021-01-13 08:00:00 3.7 16 Noroeste 25 Noroeste 0 -- -- 83
2021-01-13 07:00:00 3.8 10 Noroeste 22 Noroeste 0 -- -- 83
2021-01-13 06:00:00 4.2 12 Noroeste 19 Noroeste 0 -- -- 83
2021-01-13 05:00:00 4.5 13 Noroeste 22 Noroeste 0 -- -- 81
2021-01-13 04:00:00 4 13 Noroeste 22 Noroeste 0 -- -- 83
2021-01-13 03:00:00 4.2 9 Noroeste 21 Noroeste 0 -- -- 82
2021-01-13 02:00:00 5.4 15 Noroeste 30 Noroeste 0 -- -- 76
2021-01-13 01:00:00 5.1 17 Noroeste 27 Oeste 0 -- -- 77
2021-01-13 00:00:00 4.3 13 Noroeste 19 Noroeste 0 -- -- 81
2021-01-12 23:00:00 4.2 9 Noroeste 16 Noroeste 0 -- -- 83
2021-01-12 22:00:00 4.2 10 Noroeste 17 Noroeste 0 -- -- 82
2021-01-12 21:00:00 4.4 9 Noroeste 15 Noroeste 0 -- -- 80
2021-01-12 20:00:00 4.5 6 Noroeste 18 Noroeste 0 -- -- 79
2021-01-12 19:00:00 4.5 19 Noroeste 27 Noroeste 0 -- -- 77
2021-01-12 18:00:00 5.4 15 Noroeste 32 Noroeste 0 -- -- 73
2021-01-12 17:00:00 7.4 22 Noroeste 35 Noroeste 0 -- -- 66
2021-01-12 16:00:00 8.2 25 Noroeste 41 Noroeste 0 -- -- 63
2021-01-12 15:00:00 8.9 24 Noroeste 43 Noroeste 0 -- -- 60
2021-01-12 14:00:00 8.8 28 Noroeste 42 Noroeste 0 -- -- 61
2021-01-12 13:00:00 8.4 23 Noroeste 39 Noroeste 0 -- -- 61
2021-01-12 12:00:00 7.5 23 Noroeste 36 Noroeste 0 -- -- 64
2021-01-12 11:00:00 5.1 10 Noroeste 25 Noroeste 0 -- -- 76
2021-01-12 10:00:00 2.9 9 Noroeste 19 Noroeste 0 -- -- 82
2021-01-12 09:00:00 2.1 11 Noroeste 23 Norte 0 -- -- 84
2021-01-12 08:00:00 0.8 5 Oeste 18 Oeste 0 -- -- 87
2021-01-12 07:00:00 0.5 8 Noroeste 26 Noroeste 0 -- -- 84
2021-01-12 06:00:00 0.5 15 Noroeste 23 Noroeste 0 -- -- 85
2021-01-12 05:00:00 0.3 15 Noroeste 28 Noroeste 0 -- -- 83
2021-01-12 04:00:00 0.6 17 Noroeste 29 Norte 0 -- -- 83
2021-01-12 03:00:00 0.5 14 Noroeste 26 Noroeste 0 -- -- 84
2021-01-12 02:00:00 0.5 13 Noroeste 23 Noroeste 0 -- -- 85
2021-01-12 01:00:00 -0.2 2 Noroeste 14 Noroeste 0 -- -- 85
2021-01-12 00:00:00 0.7 11 Norte 22 Norte 0 -- -- 84
2021-01-11 23:00:00 1.1 10 Noroeste 31 Noroeste 0 -- -- 81
2021-01-11 22:00:00 1.2 14 Noroeste 30 Noroeste 0 -- -- 80
2021-01-11 21:00:00 1.9 18 Noroeste 42 Noroeste 0 -- -- 76
2021-01-11 20:00:00 1.9 21 Noroeste 36 Noroeste 0 -- -- 75
2021-01-11 19:00:00 2.6 23 Noroeste 41 Noroeste 0 -- -- 71
2021-01-11 18:00:00 3.2 22 Noroeste 43 Norte 0 -- -- 69
2021-01-11 17:00:00 5.1 22 Noroeste 49 Noroeste 0 -- -- 62
2021-01-11 16:00:00 5.9 26 Noroeste 51 Norte 0 -- -- 63
2021-01-11 15:00:00 6.1 29 Noroeste 52 Noroeste 0 -- -- 59
2021-01-11 14:00:00 6 29 Noroeste 46 Noroeste 0 -- -- 61
2021-01-11 13:00:00 5.6 28 Noroeste 47 Noroeste 0 -- -- 61
2021-01-11 12:00:00 5 31 Noroeste 59 Noroeste 0 -- -- 64
2021-01-11 11:00:00 4 34 Noroeste 52 Noroeste 0 -- -- 66
2021-01-11 10:00:00 2.1 27 Noroeste 40 Noroeste 0 -- -- 75
2021-01-11 09:00:00 0.3 25 Noroeste 41 Noroeste 0.2 -- -- 82
2021-01-11 08:00:00 0.4 22 Noroeste 37 Noroeste 0 -- -- 81
2021-01-11 07:00:00 0.7 25 Noroeste 39 Norte 0 -- -- 80
2021-01-11 06:00:00 0.6 22 Noroeste 35 Noroeste 0 -- -- 78
2021-01-11 05:00:00 -0.1 22 Norte 39 Noroeste 0 -- -- 81
2021-01-11 04:00:00 0.1 20 Noroeste 32 Norte 0 -- -- 81
2021-01-11 03:00:00 -0.2 15 Norte 31 Norte 0 -- -- 82
2021-01-11 02:00:00 -0.2 18 Noroeste 30 Norte 0 -- -- 83
2021-01-11 01:00:00 -0.6 14 Norte 23 Norte 0 -- -- 84
2021-01-11 00:00:00 -0.6 12 Norte 24 Norte 0 -- -- 83
2021-01-10 23:00:00 -0.6 13 Norte 25 Norte 0 -- -- 85
2021-01-10 22:00:00 0 12 Noroeste 23 Noroeste 0 -- -- 84
2021-01-10 21:00:00 0.2 10 Noroeste 24 Noroeste 0 -- -- 85
2021-01-10 20:00:00 0.8 14 Noroeste 27 Noroeste 0 -- -- 85
2021-01-10 19:00:00 1.5 14 Noroeste 25 Norte 0 -- -- 82
2021-01-10 18:00:00 1.7 10 Noroeste 20 Noroeste 0 -- -- 84
2021-01-10 17:00:00 2.3 15 Noroeste 30 Noroeste 0 -- -- 81
2021-01-10 16:00:00 3.3 19 Noroeste 35 Noroeste 0 -- -- 77
2021-01-10 15:00:00 3.1 21 Noroeste 39 Noroeste 0 -- -- 78
2021-01-10 14:00:00 3.3 19 Noroeste 34 Noroeste 0.2 -- -- 79
2021-01-10 13:00:00 3.6 22 Noroeste 40 Noroeste 1.8 -- -- 80
2021-01-10 12:00:00 2.8 22 Noroeste 36 Noroeste 2.4 -- -- 84
2021-01-10 11:00:00 2.9 21 Noroeste 36 Noroeste 2.2 -- -- 85
2021-01-10 10:00:00 1.9 24 Noroeste 42 Noroeste 0.8 -- -- 89
2021-01-10 09:00:00 1.6 27 Noroeste 46 Oeste 0.8 -- -- 89
2021-01-10 08:00:00 1.4 22 Noroeste 36 Noroeste 0.8 -- -- 90
2021-01-10 07:00:00 1.2 20 Noroeste 34 Noroeste 0.8 -- -- 94
2021-01-10 06:00:00 0.8 22 Noroeste 39 Noroeste 0.6 -- -- 100
2021-01-10 05:00:00 0.6 17 Noroeste 31 Noroeste 0.2 -- -- 100
2021-01-10 04:00:00 0.4 14 Noroeste 22 Noroeste 0.2 -- -- 100
2021-01-10 03:00:00 0.5 10 Noroeste 14 Noroeste 0 -- -- 100
2021-01-10 02:00:00 0.2 0 Calma -- -- 0 -- -- 100
2021-01-10 01:00:00 0.1 0 Calma -- -- 0 -- -- 100
2021-01-10 00:00:00 0 0 Calma -- -- 0.2 -- -- 100
2021-01-09 23:00:00 0 0 Calma -- -- 0 -- -- 100
2021-01-09 22:00:00 0 0 Calma -- -- 0 -- -- 100
2021-01-09 21:00:00 0 0 Calma -- -- 0 -- -- 100
2021-01-09 20:00:00 -0.1 0 Calma -- -- 0 -- -- 100
2021-01-09 19:00:00 -0.1 0 Calma -- -- 0.2 -- -- 100
2021-01-09 18:00:00 -0.1 0 Calma 9 Noroeste 0.2 -- -- 100
2021-01-09 17:00:00 0.1 6 Noroeste 16 Noroeste 0.6 -- -- 100
2021-01-09 16:00:00 0.1 9 Noroeste 17 Noroeste 0.8 -- -- 100
2021-01-09 15:00:00 0.1 13 Noroeste 21 Noroeste 0.6 -- -- 100
2021-01-09 14:00:00 0.1 14 Noroeste 25 Noroeste 0.6 -- -- 100
2021-01-09 13:00:00 0.1 14 Noroeste 26 Noroeste 0.2 -- -- 99
2021-01-09 12:00:00 -0.1 16 Noroeste 28 Noroeste 0.2 -- -- 100
2021-01-09 11:00:00 -0.3 13 Noroeste 26 Noroeste 0 -- -- 99
2021-01-09 10:00:00 -0.3 12 Noroeste 19 Noroeste 0 -- -- 99
2021-01-09 09:00:00 -0.6 8 Noroeste 13 Noroeste 0 -- -- 99
2021-01-09 08:00:00 -0.6 6 Noroeste 13 Noroeste 0 -- -- 99
2021-01-09 07:00:00 -0.6 6 Noroeste 10 Noroeste 0 -- -- 99
2021-01-09 06:00:00 -0.6 7 Noroeste 13 Noroeste 0 -- -- 98
2021-01-09 05:00:00 -0.6 5 Noroeste 10 Norte 0 -- -- 97
2021-01-09 04:00:00 -0.3 5 Norte 9 Norte 0 -- -- 93
2021-01-09 03:00:00 0 5 Norte 9 Norte 0 -- -- 89
2021-01-09 02:00:00 0.2 4 Noroeste 7 Noroeste 0 -- -- 87
2021-01-09 01:00:00 0.3 2 Norte 7 Noroeste 0 -- -- 84
2021-01-09 00:00:00 0.5 4 Noroeste 7 Norte 0 -- -- 82
2021-01-08 23:00:00 0.6 5 Noroeste 9 Noroeste 0 -- -- 80
2021-01-08 22:00:00 0.9 5 Noroeste 12 Noroeste 0 -- -- 78
2021-01-08 21:00:00 0.9 4 Noroeste 12 Norte 0 -- -- 77
2021-01-08 20:00:00 0.9 6 Noroeste 10 Noroeste 0 -- -- 76
2021-01-08 19:00:00 1.3 5 Noroeste 10 Noroeste 0 -- -- 71
2021-01-08 18:00:00 2.1 8 Noroeste 15 Noroeste 0 -- -- 66
2021-01-08 17:00:00 2.8 9 Noroeste 21 Noroeste 0 -- -- 63
2021-01-08 16:00:00 3.4 13 Noroeste 22 Noroeste 0 -- -- 60
2021-01-08 15:00:00 3.3 13 Noroeste 26 Noroeste 0 -- -- 60
2021-01-08 14:00:00 3.7 12 Noroeste 25 Noroeste 0 -- -- 58
2021-01-08 13:00:00 4 17 Noroeste 31 Noroeste 0 -- -- 58
2021-01-08 12:00:00 3.2 14 Noroeste 22 Noroeste 0 -- -- 66
2021-01-08 11:00:00 0.6 11 Noroeste 19 Norte 0 -- -- 81
2021-01-08 10:00:00 -2.2 4 Noroeste 10 Noroeste 0 -- -- 98
2021-01-08 09:00:00 -4.8 8 Noroeste 13 Noroeste 0 -- -- 96
2021-01-08 08:00:00 -5.5 8 Noroeste 11 Noroeste 0 -- -- 96
2021-01-08 07:00:00 -5.4 6 Oeste 10 Noroeste 0 -- -- 94
2021-01-08 06:00:00 -4.8 7 Noroeste 10 Noroeste 0 -- -- 95
2021-01-08 05:00:00 -4.5 7 Noroeste 13 Noroeste 0 -- -- 94
2021-01-08 04:00:00 -4.5 6 Noroeste 11 Noroeste 0 -- -- 94
2021-01-08 03:00:00 -3.8 6 Noroeste 9 Noroeste 0 -- -- 94
2021-01-08 02:00:00 -2.7 5 Noroeste 10 Noroeste 0 -- -- 93
2021-01-08 01:00:00 -1.5 5 Noroeste 10 Noroeste 0 -- -- 91
2021-01-08 00:00:00 -1 6 Noroeste 14 Noroeste 0 -- -- 94
2021-01-07 23:00:00 -2.2 6 Noroeste 13 Noroeste 0 -- -- 97
2021-01-07 22:00:00 -3.5 8 Noroeste 12 Noroeste 0 -- -- 96
2021-01-07 21:00:00 -3.6 7 Noroeste 13 Noroeste 0 -- -- 95
2021-01-07 20:00:00 -4.3 2 Noroeste 6 Sudoeste 0 -- -- 91
2021-01-07 19:00:00 -2.5 4 Oeste -- -- 0 -- -- 84
2021-01-07 18:00:00 0.8 2 Oeste -- -- 0 -- -- 76
2021-01-07 17:00:00 2.6 0 Calma 5 Noroeste 0 -- -- 78
2021-01-07 16:00:00 2.6 5 Norte 11 Norte 0 -- -- 73
2021-01-07 15:00:00 2.3 6 Norte 11 Noroeste 0 -- -- 76
2021-01-07 14:00:00 1.3 4 Noroeste 10 Oeste 0 -- -- 82
2021-01-07 13:00:00 0.1 6 Oeste 9 Oeste 0 -- -- 91
2021-01-07 12:00:00 -0.9 4 Noroeste 9 Noroeste 0 -- -- 97
2021-01-07 11:00:00 -2 3 Noroeste 6 Noroeste 0 -- -- 99
2021-01-07 10:00:00 -4.9 2 Norte 5 Noroeste 0 -- -- 99
2021-01-07 09:00:00 -6.5 0 Calma 6 Oeste 0 -- -- 96
2021-01-07 08:00:00 -7.2 4 Oeste 9 Oeste 0 -- -- 97
2021-01-07 07:00:00 -7.8 3 Sudoeste 4 Sudoeste 0 -- -- 95
2021-01-07 06:00:00 -6.9 2 Sudoeste 6 Sudoeste 0 -- -- 96
2021-01-07 05:00:00 -6.3 0 Calma 8 Sudoeste 0 -- -- 97
2021-01-07 04:00:00 -6.7 5 Oeste 8 Oeste 0 -- -- 96
2021-01-07 03:00:00 -6.5 3 Oeste 5 Sur 0 -- -- 96
2021-01-07 02:00:00 -6.6 0 Calma 4 Norte 0 -- -- 94
2021-01-07 01:00:00 -6.2 4 Sudoeste 5 Sudoeste 0 -- -- 94
2021-01-07 00:00:00 -5.7 3 Sudoeste 4 Sur 0 -- -- 94
2021-01-06 23:00:00 -5.2 2 Sudoeste 4 Sur 0 -- -- 91
2021-01-06 22:00:00 -4.2 3 Sur 5 Sudoeste 0 -- -- 90
2021-01-06 21:00:00 -3.1 3 Sudoeste 6 Sudoeste 0 -- -- 87
2021-01-06 20:00:00 -1.8 5 Sudoeste 10 Oeste 0 -- -- 85
2021-01-06 19:00:00 -0.5 3 Oeste 7 Sudoeste 0 -- -- 77
2021-01-06 18:00:00 4.3 4 Norte 7 Norte 0 -- -- 60
2021-01-06 17:00:00 7 3 Norte 17 Norte 0 -- -- 50
2021-01-06 16:00:00 7.6 10 Norte 18 Norte 0 -- -- 48
2021-01-06 15:00:00 8 12 Norte 22 Noroeste 0 -- -- 47
2021-01-06 14:00:00 7.7 12 Norte 22 Noroeste 0 -- -- 50
2021-01-06 13:00:00 6.6 10 Noroeste 21 Noroeste 0 -- -- 63
2021-01-06 12:00:00 3.5 2 Norte 8 Nordeste 0 -- -- 81
2021-01-06 11:00:00 1.3 3 Nordeste 5 Nordeste 0 -- -- 90
2021-01-06 10:00:00 -1.4 3 Este 5 Nordeste 0 -- -- 99
2021-01-06 09:00:00 -4.6 0 Calma 6 Este 0 -- -- 98
2021-01-06 08:00:00 -5 0 Calma 3 Nordeste 0 -- -- 96
2021-01-06 07:00:00 -4 2 Oeste 10 Oeste 0 -- -- 97
2021-01-06 06:00:00 -4 4 Oeste 9 Oeste 0 -- -- 96
2021-01-06 05:00:00 -3.3 2 Noroeste 6 Oeste 0 -- -- 95
2021-01-06 04:00:00 -2.4 6 Oeste 10 Noroeste 0 -- -- 94
2021-01-06 03:00:00 -1.4 7 Noroeste 10 Oeste 0 -- -- 89
2021-01-06 02:00:00 0.6 4 Noroeste 9 Oeste 0 -- -- 89
2021-01-06 01:00:00 1.4 5 Norte 13 Noroeste 0 -- -- 86
2021-01-06 00:00:00 1.3 7 Noroeste 10 Noroeste 0 -- -- 90
2021-01-05 23:00:00 1.5 6 Norte 12 Norte 0 -- -- 90
2021-01-05 22:00:00 0.9 6 Norte 15 Noroeste 0 -- -- 88
2021-01-05 21:00:00 2.8 10 Noroeste 18 Noroeste 0 -- -- 83
2021-01-05 20:00:00 2.8 7 Noroeste 11 Noroeste 0 -- -- 86
2021-01-05 19:00:00 3.1 6 Norte 11 Norte 0 -- -- 85
2021-01-05 18:00:00 3.6 6 Norte 22 Norte 0 -- -- 82
2021-01-05 17:00:00 5.7 15 Norte 28 Noroeste 0 -- -- 67
2021-01-05 16:00:00 6.1 12 Noroeste 22 Noroeste 0 -- -- 69
2021-01-05 15:00:00 7.2 14 Noroeste 26 Noroeste 0 -- -- 67
2021-01-05 14:00:00 5.3 14 Norte 22 Norte 0 -- -- 73
2021-01-05 13:00:00 4.8 9 Noroeste 20 Noroeste 0 -- -- 80
2021-01-05 12:00:00 2.6 5 Noroeste 10 Sudoeste 0 -- -- 96
2021-01-05 11:00:00 1 4 Sudoeste 8 Oeste 0 -- -- 100
2021-01-05 10:00:00 -1 5 Sudoeste 6 Sur 0 -- -- 100
2021-01-05 09:00:00 -1.9 0 Calma 7 Sudoeste 0 -- -- 99
2021-01-05 08:00:00 -1.9 4 Sudoeste 8 Sudoeste 0 -- -- 99
2021-01-05 07:00:00 -1.4 2 Sudeste 6 Sur 0 -- -- 99
2021-01-05 06:00:00 -1.6 4 Sur 6 Sur 0 -- -- 99
2021-01-05 05:00:00 -2.2 0 Calma 10 Sudoeste 0 -- -- 98
2021-01-05 04:00:00 -1.8 3 Oeste 6 Sudoeste 0 -- -- 98
2021-01-05 03:00:00 -2.6 4 Oeste 11 Oeste 0 -- -- 97
2021-01-05 02:00:00 -2.2 7 Oeste 10 Sudoeste 0 -- -- 95
2021-01-05 01:00:00 -1.6 5 Noroeste 8 Noroeste 0 -- -- 93
2021-01-05 00:00:00 -0.4 0 Calma 10 Noroeste 0 -- -- 91
2021-01-04 23:00:00 1.3 8 Noroeste 19 Noroeste 0 -- -- 89
2021-01-04 22:00:00 2 6 Noroeste 20 Noroeste 0 -- -- 85
2021-01-04 21:00:00 2.3 12 Noroeste 22 Noroeste 0 -- -- 85
2021-01-04 20:00:00 2 12 Noroeste 21 Noroeste 0 -- -- 85
2021-01-04 19:00:00 2.7 10 Noroeste 24 Noroeste 0 -- -- 81
2021-01-04 18:00:00 3.9 14 Noroeste 25 Noroeste 0 -- -- 77
2021-01-04 17:00:00 4.7 11 Noroeste 22 Noroeste 0 -- -- 77
2021-01-04 16:00:00 5.8 7 Sudoeste 11 Sudoeste 0 -- -- 78
2021-01-04 15:00:00 4.6 0 Calma 6 Este 0 -- -- 83
2021-01-04 14:00:00 3.8 3 Nordeste 8 Norte 0 -- -- 99
2021-01-04 13:00:00 2.1 3 Este 6 Este 0 -- -- 100
2021-01-04 12:00:00 0.1 0 Calma 4 Este 0 -- -- 100
2021-01-04 11:00:00 -1.8 3 Nordeste 6 Noroeste 0 -- -- 100
2021-01-04 10:00:00 -3.1 0 Calma 5 Sudoeste 0 -- -- 100
2021-01-04 09:00:00 -3.7 0 Calma 5 Oeste 0 -- -- 100
2021-01-04 08:00:00 -4 2 Este 6 Norte 0 -- -- 100
2021-01-04 07:00:00 -3.8 0 Calma 5 Norte 0 -- -- 100
2021-01-04 06:00:00 -3.2 2 Sur 7 Norte 0 -- -- 98
2021-01-04 05:00:00 -2.6 2 Sudeste 8 Sur 0 -- -- 99
2021-01-04 04:00:00 -3.1 0 Calma 3 Sudoeste 0 -- -- 97
2021-01-04 03:00:00 -2 0 Calma 5 Norte 0 -- -- 97
2021-01-04 02:00:00 -1 0 Calma 4 Sur 0 -- -- 96
2021-01-04 01:00:00 0 2 Sudeste 9 Sudoeste 0 -- -- 95
2021-01-04 00:00:00 0.9 6 Sudoeste 17 Sudoeste 0 -- -- 92
2021-01-03 23:00:00 2.8 10 Sudoeste 26 Oeste 0.2 -- -- 93
2021-01-03 22:00:00 2.1 9 Sudoeste 30 Oeste 0.2 -- -- 95
2021-01-03 21:00:00 2.7 23 Oeste 35 Oeste 0.8 -- -- 93
2021-01-03 20:00:00 3.2 14 Noroeste 27 Noroeste 0 -- -- 85
2021-01-03 19:00:00 3.7 3 Sudoeste 22 Noroeste 0 -- -- 76
2021-01-03 18:00:00 4.8 14 Noroeste 22 Noroeste 0 -- -- 73
2021-01-03 17:00:00 6.3 10 Noroeste 26 Norte 0 -- -- 69
2021-01-03 16:00:00 6.9 12 Norte 31 Norte 0 -- -- 66
2021-01-03 15:00:00 8.7 21 Noroeste 35 Noroeste 0 -- -- 58
2021-01-03 14:00:00 8.6 21 Noroeste 36 Norte 0 -- -- 61
2021-01-03 13:00:00 7.8 21 Norte 32 Norte 0 -- -- 64
2021-01-03 12:00:00 6.4 14 Noroeste 28 Norte 0 -- -- 74
2021-01-03 11:00:00 4.6 9 Noroeste 20 Noroeste 0 -- -- 79
2021-01-03 10:00:00 1.7 9 Noroeste 15 Noroeste 0 -- -- 96
2021-01-03 09:00:00 0.3 8 Noroeste 16 Noroeste 0 -- -- 96
2021-01-03 08:00:00 0.3 12 Noroeste 18 Noroeste 0 -- -- 95
2021-01-03 07:00:00 0.6 9 Noroeste 16 Noroeste 0 -- -- 94
2021-01-03 06:00:00 -0.1 8 Noroeste 16 Noroeste 0 -- -- 95
2021-01-03 05:00:00 0.1 8 Noroeste 18 Noroeste 0 -- -- 95
2021-01-03 04:00:00 0.4 13 Noroeste 21 Noroeste 0 -- -- 95
2021-01-03 03:00:00 -0.9 8 Noroeste 15 Noroeste 0 -- -- 93
2021-01-03 02:00:00 0 10 Noroeste 17 Noroeste 0 -- -- 90
2021-01-03 01:00:00 0.3 9 Noroeste 15 Noroeste 0 -- -- 87
2021-01-03 00:00:00 1.5 10 Noroeste 25 Norte 0 -- -- 83
2021-01-02 23:00:00 2.2 13 Norte 26 Norte 0 -- -- 81
2021-01-02 22:00:00 2.8 14 Norte 28 Norte 0 -- -- 79
2021-01-02 21:00:00 2.5 18 Noroeste 31 Noroeste 0 -- -- 81
2021-01-02 20:00:00 2.9 20 Noroeste 33 Noroeste 0 -- -- 81
2021-01-02 19:00:00 3.2 21 Noroeste 39 Noroeste 0 -- -- 80
2021-01-02 18:00:00 3.1 24 Noroeste 41 Noroeste 0 -- -- 79
2021-01-02 17:00:00 4.6 24 Noroeste 49 Noroeste 0 -- -- 75
2021-01-02 16:00:00 5.5 31 Noroeste 50 Noroeste 0 -- -- 72
2021-01-02 15:00:00 6.2 31 Noroeste 48 Noroeste 0 -- -- 66
2021-01-02 14:00:00 5.7 31 Noroeste 49 Noroeste 0 -- -- 64